Allison, Illinois
Current Conditions -  °F | °C
As of 4:53 AM on Saturday 01 Nov 2014 (Local Time) from KLWV Reporting Station
Scattered Clouds Scattered Clouds  
Wind Chill: 25°   Ceiling: Unl
Heat Index: 35°   Visibility: 10mi
Dew Point: 28°   Wind: 16mph
Humidity: 76%   Direction: 350°N
Pressure: 30.31"   Gusts: NA
Location:  38.7501°N, 87.6141°W
Report Text: KLWV 010953Z AUTO 35014KT 10SM SCT032 02/M02 A3031 RMK AO2 SLP266 T00171022
Loading
Personal Weather Stations






























Interactive Weather Map
Tropical Storm Tracking
New forecast layout! Learn more

10-Day Weather Forecast

Advertisements
Track Severe Weather on mobile